createdAt,value
2018-10-19T00:01:29.783Z,101879.00
2018-10-19T00:06:24.400Z,101877.00
2018-10-19T00:11:18.105Z,101869.00
2018-10-19T00:16:12.032Z,101866.00
2018-10-19T00:21:06.677Z,101872.00
2018-10-19T00:26:00.534Z,101866.00
2018-10-19T00:30:53.928Z,101867.00
2018-10-19T00:35:47.262Z,101858.00
2018-10-19T00:40:40.669Z,101856.00
2018-10-19T00:45:39.648Z,101851.00
2018-10-19T00:50:33.025Z,101850.00
2018-10-19T00:55:26.580Z,101848.00
2018-10-19T01:00:19.981Z,101852.00
2018-10-19T01:05:14.065Z,101857.00
2018-10-19T01:10:07.390Z,101851.00
2018-10-19T01:15:00.775Z,101854.00
2018-10-19T01:19:54.122Z,101852.00
2018-10-19T01:24:48.621Z,101843.00
2018-10-19T01:29:42.616Z,101842.00
2018-10-19T01:34:35.994Z,101845.00
2018-10-19T01:39:29.301Z,101842.00
2018-10-19T01:44:22.663Z,101853.00
2018-10-19T01:49:17.277Z,101858.00
2018-10-19T01:54:10.701Z,101859.00
2018-10-19T01:59:07.172Z,101857.00
2018-10-19T02:04:01.061Z,101851.00
2018-10-19T02:08:54.487Z,101856.00
2018-10-19T02:13:47.784Z,101851.00
2018-10-19T02:18:41.671Z,101857.00
2018-10-19T02:23:35.060Z,101863.00
2018-10-19T02:28:28.932Z,101857.00
2018-10-19T02:33:23.139Z,101855.00
2018-10-19T02:38:16.471Z,101860.00
2018-10-19T02:43:09.838Z,101856.00
2018-10-19T02:48:03.990Z,101860.00
2018-10-19T02:52:58.006Z,101864.00
2018-10-19T02:57:51.301Z,101853.00
2018-10-19T03:02:44.666Z,101852.00
2018-10-19T03:07:38.337Z,101862.00
2018-10-19T03:12:32.297Z,101858.00
2018-10-19T03:17:25.730Z,101866.00
2018-10-19T03:22:19.178Z,101872.00
2018-10-19T03:27:12.602Z,101869.00
2018-10-19T03:32:06.068Z,101866.00
2018-10-19T03:37:00.341Z,101868.00
2018-10-19T03:41:54.737Z,101875.00
2018-10-19T03:46:48.069Z,101873.00
2018-10-19T03:51:41.418Z,101875.00
2018-10-19T03:56:34.823Z,101882.00
2018-10-19T04:01:28.248Z,101880.00
2018-10-19T04:06:21.610Z,101886.00
2018-10-19T04:11:15.054Z,101889.00
2018-10-19T04:16:08.331Z,101885.00
2018-10-19T04:21:01.689Z,101884.00
2018-10-19T04:25:55.567Z,101883.00
2018-10-19T04:30:48.999Z,101880.00
2018-10-19T04:35:42.375Z,101880.00
2018-10-19T04:40:35.728Z,101879.00
2018-10-19T04:45:29.289Z,101886.00
2018-10-19T04:50:22.760Z,101886.00
2018-10-19T04:55:20.362Z,101896.00
2018-10-19T05:00:15.449Z,101892.00
2018-10-19T05:05:09.527Z,101896.00
2018-10-19T05:10:03.780Z,101899.00
2018-10-19T05:14:57.120Z,101902.00
2018-10-19T05:19:50.572Z,101900.00
2018-10-19T05:24:44.033Z,101895.00
2018-10-19T05:29:38.340Z,101894.00
2018-10-19T05:34:32.419Z,101897.00
2018-10-19T05:39:26.937Z,101899.00
2018-10-19T05:44:22.524Z,101900.00
2018-10-19T05:49:16.552Z,101910.00
2018-10-19T05:54:09.908Z,101911.00
2018-10-19T05:59:03.357Z,101909.00
2018-10-19T06:03:57.294Z,101907.00
2018-10-19T06:08:50.678Z,101905.00
2018-10-19T06:13:44.068Z,101914.00
2018-10-19T06:18:37.369Z,101921.00
2018-10-19T06:23:30.947Z,101922.00
2018-10-19T06:28:24.262Z,101927.00
2018-10-19T06:33:17.647Z,101933.00
2018-10-19T06:38:11.071Z,101941.00
2018-10-19T06:43:04.445Z,101943.00
2018-10-19T06:47:57.978Z,101946.00
2018-10-19T06:52:51.423Z,101945.00
2018-10-19T06:57:45.780Z,101942.00
2018-10-19T07:02:39.131Z,101941.00
2018-10-19T07:07:34.078Z,101943.00
2018-10-19T07:12:27.466Z,101947.00
2018-10-19T07:17:20.865Z,101952.00
2018-10-19T07:22:14.300Z,101953.00
2018-10-19T07:27:09.373Z,101955.00
2018-10-19T07:32:06.436Z,101956.00
2018-10-19T07:37:04.199Z,101963.00
2018-10-19T07:42:02.445Z,101958.00
2018-10-19T07:46:59.821Z,101957.00
2018-10-19T07:51:53.710Z,101963.00
2018-10-19T07:56:47.117Z,101962.00
2018-10-19T08:01:41.298Z,101963.00
2018-10-19T08:06:35.665Z,101961.00
2018-10-19T08:11:29.169Z,101963.00
2018-10-19T08:16:23.070Z,101949.00
2018-10-19T08:21:16.543Z,101969.00
2018-10-19T08:26:10.841Z,101967.00
2018-10-19T08:31:04.597Z,101974.00
2018-10-19T08:35:58.109Z,101981.00
2018-10-19T08:40:52.485Z,101978.00
2018-10-19T08:45:46.674Z,101983.00
2018-10-19T08:50:40.932Z,101984.00
2018-10-19T08:55:34.311Z,101985.00
2018-10-19T09:00:31.455Z,101979.00
2018-10-19T09:05:30.345Z,101981.00
2018-10-19T09:10:30.457Z,101983.00
2018-10-19T09:15:29.356Z,101989.00
2018-10-19T09:20:29.866Z,101979.00
2018-10-19T09:25:30.449Z,101978.00
2018-10-19T09:31:59.999Z,101978.00
2018-10-19T09:36:58.326Z,101975.00
2018-10-19T09:41:56.988Z,101981.00
2018-10-19T09:46:54.399Z,101990.00
2018-10-19T09:51:52.227Z,101982.00
2018-10-19T09:56:50.012Z,101987.00
2018-10-19T10:01:47.554Z,101979.00
2018-10-19T10:06:44.486Z,101969.00
2018-10-19T10:11:37.945Z,101971.00
2018-10-19T10:16:32.462Z,101968.00
2018-10-19T10:21:25.888Z,101963.00
2018-10-19T10:26:19.299Z,101960.00
2018-10-19T10:31:12.921Z,101958.00
2018-10-19T10:36:06.261Z,101953.00
2018-10-19T10:40:59.887Z,101942.00
2018-10-19T10:45:54.026Z,101936.00
2018-10-19T10:50:47.430Z,101933.00
2018-10-19T10:55:40.832Z,101931.00
2018-10-19T11:00:34.471Z,101933.00
2018-10-19T11:05:27.772Z,101923.00
2018-10-19T11:10:21.167Z,101919.00
2018-10-19T11:15:14.575Z,101910.00
2018-10-19T11:20:07.971Z,101899.00
2018-10-19T11:25:02.057Z,101903.00
2018-10-19T11:29:55.410Z,101904.00
2018-10-19T11:34:48.839Z,101902.00
2018-10-19T11:39:59.720Z,101903.00
2018-10-19T11:44:53.072Z,101892.00
2018-10-19T11:49:46.620Z,101893.00
2018-10-19T11:54:40.817Z,101883.00
2018-10-19T11:59:34.204Z,101880.00
2018-10-19T12:04:28.601Z,101880.00
2018-10-19T12:09:23.625Z,101882.00
2018-10-19T12:14:17.893Z,101886.00
2018-10-19T12:19:11.666Z,101880.00
2018-10-19T12:24:05.209Z,101872.00
2018-10-19T12:28:59.154Z,101866.00
2018-10-19T12:33:52.753Z,101862.00
2018-10-19T12:38:46.147Z,101856.00
2018-10-19T12:43:40.611Z,101854.00
2018-10-19T12:48:34.699Z,101857.00
2018-10-19T12:53:28.027Z,101852.00
2018-10-19T12:58:22.017Z,101850.00
2018-10-19T13:03:15.457Z,101858.00
2018-10-19T13:08:08.763Z,101854.00
2018-10-19T13:13:02.174Z,101838.00
2018-10-19T13:17:56.121Z,101824.00
2018-10-19T13:22:49.480Z,101820.00
2018-10-19T13:27:43.598Z,101820.00
2018-10-19T13:32:37.187Z,101810.00
2018-10-19T13:37:31.226Z,101805.00
2018-10-19T13:42:24.742Z,101805.00
2018-10-19T13:47:18.104Z,101801.00
2018-10-19T13:52:11.537Z,101804.00
2018-10-19T13:57:07.246Z,101809.00
2018-10-19T14:02:01.336Z,101804.00
2018-10-19T14:06:55.357Z,101796.00
2018-10-19T14:11:49.371Z,101783.00
2018-10-19T14:16:43.518Z,101779.00
2018-10-19T14:21:36.996Z,101779.00
2018-10-19T14:26:30.978Z,101774.00
2018-10-19T14:31:24.326Z,101775.00
2018-10-19T14:36:17.785Z,101768.00
2018-10-19T14:41:11.375Z,101770.00
2018-10-19T14:46:04.947Z,101769.00
2018-10-19T14:50:59.427Z,101771.00
2018-10-19T14:55:52.831Z,101773.00
2018-10-19T15:00:48.201Z,101777.00
2018-10-19T15:05:42.213Z,101776.00
2018-10-19T15:10:35.843Z,101773.00
2018-10-19T15:15:28.975Z,101773.00
2018-10-19T15:20:22.379Z,101778.00
2018-10-19T15:25:15.881Z,101776.00
2018-10-19T15:30:13.662Z,101777.00
2018-10-19T15:35:07.867Z,101781.00
2018-10-19T15:40:01.839Z,101785.00
2018-10-19T15:44:55.189Z,101796.00
2018-10-19T15:49:48.508Z,101801.00
2018-10-19T15:54:41.882Z,101811.00
2018-10-19T15:59:35.375Z,101808.00
2018-10-19T16:04:28.703Z,101809.00
2018-10-19T16:09:22.490Z,101819.00
2018-10-19T16:14:15.807Z,101825.00
2018-10-19T16:19:09.758Z,101822.00
2018-10-19T16:24:03.263Z,101825.00
2018-10-19T16:28:56.615Z,101835.00
2018-10-19T16:33:50.583Z,101835.00
2018-10-19T16:38:44.073Z,101840.00
2018-10-19T16:43:37.494Z,101848.00
2018-10-19T16:48:31.104Z,101862.00
2018-10-19T16:53:24.429Z,101858.00
2018-10-19T16:58:18.430Z,101860.00
2018-10-19T17:03:11.850Z,101869.00
2018-10-19T17:08:05.925Z,101870.00
2018-10-19T17:12:59.284Z,101870.00
2018-10-19T17:17:52.970Z,101875.00
2018-10-19T17:22:48.387Z,101875.00
2018-10-19T17:27:42.753Z,101885.00
2018-10-19T17:32:36.598Z,101899.00
2018-10-19T17:37:29.991Z,101913.00
2018-10-19T17:42:23.427Z,101918.00
2018-10-19T17:47:19.172Z,101927.00
2018-10-19T17:52:12.560Z,101939.00
2018-10-19T17:57:06.510Z,101936.00
2018-10-19T18:02:00.508Z,101940.00
2018-10-19T18:06:53.900Z,101956.00
2018-10-19T18:11:47.519Z,101964.00
2018-10-19T18:16:40.889Z,101969.00
2018-10-19T18:21:34.342Z,101972.00
2018-10-19T18:26:27.756Z,101971.00
2018-10-19T18:31:21.175Z,101976.00
2018-10-19T18:36:14.680Z,101979.00
2018-10-19T18:41:08.754Z,101972.00
2018-10-19T18:46:02.236Z,101979.00
2018-10-19T18:50:55.665Z,101982.00
2018-10-19T18:55:49.178Z,101981.00
2018-10-19T19:00:42.567Z,101990.00
2018-10-19T19:05:36.138Z,101994.00
2018-10-19T19:10:32.136Z,101997.00
2018-10-19T19:15:25.494Z,102001.00
2018-10-19T19:20:27.175Z,102009.00
2018-10-19T19:25:26.098Z,102008.00
2018-10-19T19:30:20.103Z,102011.00
2018-10-19T19:35:14.804Z,102010.00
2018-10-19T19:40:08.217Z,102011.00
2018-10-19T19:45:01.719Z,102014.00
2018-10-19T19:49:59.878Z,102022.00
2018-10-19T19:54:53.891Z,102017.00
2018-10-19T19:59:47.185Z,102021.00
2018-10-19T20:04:40.567Z,102022.00
2018-10-19T20:09:33.893Z,102027.00
2018-10-19T20:14:27.225Z,102021.00
2018-10-19T20:19:20.599Z,102023.00
2018-10-19T20:24:14.005Z,102020.00
2018-10-19T20:29:07.401Z,102023.00
2018-10-19T20:34:00.724Z,102024.00
2018-10-19T20:38:54.063Z,102026.00
2018-10-19T20:43:47.372Z,102021.00
2018-10-19T20:48:40.774Z,102025.00
2018-10-19T20:53:36.451Z,102032.00
2018-10-19T20:58:32.586Z,102033.00
2018-10-19T21:03:26.653Z,102042.00
2018-10-19T21:08:22.011Z,102044.00
2018-10-19T21:13:15.464Z,102048.00
2018-10-19T21:18:09.472Z,102055.00
2018-10-19T21:23:02.870Z,102056.00
2018-10-19T21:27:56.302Z,102061.00
2018-10-19T21:32:49.667Z,102066.00
2018-10-19T21:37:43.012Z,102066.00
2018-10-19T21:42:36.863Z,102077.00
2018-10-19T21:47:31.443Z,102070.00
2018-10-19T21:52:24.867Z,102077.00
2018-10-19T21:57:18.246Z,102084.00
2018-10-19T22:02:12.997Z,102087.00
2018-10-19T22:07:06.949Z,102086.00
2018-10-19T22:12:00.401Z,102097.00
2018-10-19T22:16:53.842Z,102102.00
2018-10-19T22:21:48.269Z,102096.00
2018-10-19T22:26:41.710Z,102100.00
2018-10-19T22:31:35.213Z,102099.00
2018-10-19T22:36:28.753Z,102111.00
2018-10-19T22:41:22.325Z,102118.00
2018-10-19T22:46:15.994Z,102118.00
2018-10-19T22:51:09.724Z,102114.00
2018-10-19T22:56:03.083Z,102130.00
2018-10-19T23:00:56.578Z,102138.00
2018-10-19T23:05:49.974Z,102133.00
2018-10-19T23:10:44.933Z,102146.00
2018-10-19T23:15:38.307Z,102149.00
2018-10-19T23:20:33.476Z,102145.00
2018-10-19T23:25:26.846Z,102152.00
2018-10-19T23:30:20.207Z,102155.00
2018-10-19T23:35:13.556Z,102161.00
2018-10-19T23:40:07.653Z,102163.00
2018-10-19T23:45:01.724Z,102169.00
2018-10-19T23:49:56.071Z,102171.00
2018-10-19T23:54:49.497Z,102179.00
2018-10-19T23:59:42.905Z,102176.00
